Time;durP1;ratioP1;P1;durP2;ratioP2;P2;SDS_P1;SDS_P2;PMS_P1;PMS_P2;Temp;Humidity;BMP_temperature;BMP_pressure;BME280_temperature;BME280_humidity;BME280_pressure;Samples;Min_cycle;Max_cycle;Signal;HPM_P1;HPM_P2
2023/02/27 00:00:13;;;;;;;;;;;;;;;0.20;83.24;101022.34;106639;1271;25508;-59
2023/02/27 00:03:02;;;;;;;;;;;;;;;0.21;83.08;101024.05;106709;1278;22855;-58
2023/02/27 00:05:32;;;;;;;;;;;;;;;0.20;82.85;101025.08;106721;1267;25233;-58
2023/02/27 00:08:01;;;;;;;;;;;;;;;0.19;82.84;101026.89;106568;1278;23071;-58
2023/02/27 00:10:30;;;;;;;;;;;;;;;0.18;83.16;101024.36;106636;1278;24197;-59
2023/02/27 00:12:59;;;;;;;;;;;;;;;0.17;83.18;101028.67;106632;1276;25340;-58
2023/02/27 00:15:30;;;;;;;;;;;;;;;0.15;82.98;101028.91;106621;1272;25302;-59
2023/02/27 00:18:00;;;;;;;;;;;;;;;0.15;83.23;101027.02;106817;1278;22511;-58
2023/02/27 00:20:31;;;;;;;;;;;;;;;0.14;83.11;101031.03;106657;1263;26013;-57
2023/02/27 00:23:00;;;;;;;;;;;;;;;0.14;83.44;101027.27;106724;1275;22606;-60
2023/02/27 00:25:29;;;;;;;;;;;;;;;0.16;83.32;101029.30;106647;1278;22588;-59
2023/02/27 00:27:58;;;;;;;;;;;;;;;0.17;83.43;101029.62;106635;1264;23952;-59
2023/02/27 00:30:27;;;;;;;;;;;;;;;0.19;83.51;101028.52;106668;1278;24263;-61
2023/02/27 00:32:57;;;;;;;;;;;;;;;0.21;83.54;101033.08;106773;1277;24268;-59
2023/02/27 00:35:26;;;;;;;;;;;;;;;0.22;83.41;101033.48;106585;1278;25579;-60
2023/02/27 00:37:55;;;;;;;;;;;;;;;0.22;83.40;101033.71;106600;1271;22636;-59
2023/02/27 00:40:25;;;;;;;;;;;;;;;0.23;83.45;101030.66;106637;1278;22645;-58
2023/02/27 00:42:54;;;;;;;;;;;;;;;0.23;83.49;101029.56;106683;1264;22474;-61
2023/02/27 00:45:23;;;;;;;;;;;;;;;0.22;83.32;101032.38;106618;1272;22509;-59
2023/02/27 00:47:53;;;;;;;;;;;;;;;0.22;83.33;101026.41;106623;1278;22518;-59
2023/02/27 00:50:22;;;;;;;;;;;;;;;0.20;83.28;101027.52;106566;1278;22484;-59
2023/02/27 00:52:52;;;;;;;;;;;;;;;0.19;83.43;101033.39;106705;1276;24229;-59
2023/02/27 00:55:21;;;;;;;;;;;;;;;0.18;83.45;101028.75;106497;1278;22780;-59
2023/02/27 00:57:50;;;;;;;;;;;;;;;0.13;83.09;101027.18;106483;1275;22525;-58
2023/02/27 01:00:20;;;;;;;;;;;;;;;0.11;83.40;101027.48;106665;1267;24081;-59
2023/02/27 01:02:49;;;;;;;;;;;;;;;0.11;83.40;101028.19;106623;1278;25412;-59
2023/02/27 01:05:19;;;;;;;;;;;;;;;0.12;83.54;101027.34;106519;1275;23159;-59
2023/02/27 01:07:48;;;;;;;;;;;;;;;0.13;83.52;101027.65;106562;1271;25291;-59
2023/02/27 01:10:17;;;;;;;;;;;;;;;0.15;83.59;101023.89;106655;1271;22531;-59
2023/02/27 01:12:46;;;;;;;;;;;;;;;0.16;83.61;101023.89;106617;1265;25092;-58
2023/02/27 01:15:15;;;;;;;;;;;;;;;0.16;83.27;101025.22;106593;1278;24228;-59
2023/02/27 01:17:44;;;;;;;;;;;;;;;0.16;83.37;101027.11;106666;1278;22516;-61
2023/02/27 01:20:14;;;;;;;;;;;;;;;0.14;83.14;101025.45;106633;1278;22519;-59
2023/02/27 01:22:43;;;;;;;;;;;;;;;0.14;83.20;101020.98;106636;1271;25320;-60
2023/02/27 01:25:12;;;;;;;;;;;;;;;0.14;83.21;101019.18;106585;1265;24197;-60
2023/02/27 01:27:41;;;;;;;;;;;;;;;0.14;83.24;101018.08;106619;1274;22536;-59
2023/02/27 01:30:14;;;;;;;;;;;;;;;0.14;83.51;101019.57;106634;1271;25392;-58
2023/02/27 01:32:43;;;;;;;;;;;;;;;0.14;83.38;101022.01;106652;1278;22522;-61
2023/02/27 01:35:13;;;;;;;;;;;;;;;0.11;83.23;101024.73;106740;1278;22890;-61
2023/02/27 01:37:42;;;;;;;;;;;;;;;0.08;83.19;101022.85;106629;1259;23866;-59
2023/02/27 01:40:13;;;;;;;;;;;;;;;0.06;83.32;101025.99;106848;1275;24316;-60
2023/02/27 01:42:42;;;;;;;;;;;;;;;0.06;83.38;101022.55;106806;1267;25900;-58
2023/02/27 01:45:26;;;;;;;;;;;;;;;0.07;83.34;101025.36;106586;1271;25283;-58
2023/02/27 01:47:57;;;;;;;;;;;;;;;0.07;83.29;101026.23;106667;1278;22926;-59
2023/02/27 01:50:27;;;;;;;;;;;;;;;0.06;83.34;101026.08;106630;1278;22527;-58
2023/02/27 01:52:58;;;;;;;;;;;;;;;0.08;83.56;101026.78;106563;1278;22478;-59
2023/02/27 01:55:29;;;;;;;;;;;;;;;0.08;83.42;101034.46;106663;1272;22618;-57
2023/02/27 01:57:59;;;;;;;;;;;;;;;0.08;83.46;101037.99;106560;1265;25282;-59
2023/02/27 02:00:28;;;;;;;;;;;;;;;0.07;83.55;101033.36;106600;1278;22572;-60
2023/02/27 02:03:00;;;;;;;;;;;;;;;0.06;83.38;101033.77;106637;1278;22652;-58
2023/02/27 02:05:30;;;;;;;;;;;;;;;0.05;83.25;101036.10;106529;1278;25214;-56
2023/02/27 02:08:00;;;;;;;;;;;;;;;0.02;83.17;101038.54;106659;1278;24196;-58
2023/02/27 02:10:30;;;;;;;;;;;;;;;-0.01;82.97;101045.90;106698;1278;22633;-58
2023/02/27 02:13:00;;;;;;;;;;;;;;;-0.02;83.23;101043.60;106589;1278;22742;-60
2023/02/27 02:15:33;;;;;;;;;;;;;;;-0.05;83.05;101043.61;106778;1264;22638;-59
2023/02/27 02:18:09;;;;;;;;;;;;;;;-0.07;83.21;101040.08;106748;1278;22627;-58
2023/02/27 02:20:56;;;;;;;;;;;;;;;-0.07;83.18;101042.50;106688;1272;22547;-58
2023/02/27 02:23:42;;;;;;;;;;;;;;;-0.07;83.18;101042.81;106575;1271;24308;-57
2023/02/27 02:26:27;;;;;;;;;;;;;;;-0.07;83.25;101043.67;106495;1271;22696;-59
2023/02/27 02:29:04;;;;;;;;;;;;;;;-0.07;83.32;101044.54;106723;1264;22522;-58
2023/02/27 02:31:47;;;;;;;;;;;;;;;-0.07;83.07;101048.52;106802;1265;22528;-60
2023/02/27 02:34:28;;;;;;;;;;;;;;;-0.07;83.17;101054.66;106583;1278;23333;-58
2023/02/27 02:37:23;;;;;;;;;;;;;;;-0.07;83.01;101050.36;106571;1265;23756;-57
2023/02/27 02:40:05;;;;;;;;;;;;;;;-0.06;82.95;101055.84;106778;1275;22513;-58
2023/02/27 02:42:36;;;;;;;;;;;;;;;-0.05;83.18;101057.71;106595;1278;22514;-58
2023/02/27 02:45:12;;;;;;;;;;;;;;;-0.04;83.05;101058.73;106592;1271;22559;-58
2023/02/27 02:47:45;;;;;;;;;;;;;;;-0.05;82.88;101061.88;106759;1278;24757;-59
2023/02/27 02:50:21;;;;;;;;;;;;;;;-0.09;82.69;101062.89;106594;1278;25432;-59
2023/02/27 02:52:55;;;;;;;;;;;;;;;-0.10;82.65;101068.77;106646;1271;22536;-58
2023/02/27 02:55:27;;;;;;;;;;;;;;;-0.13;82.58;101068.29;106585;1274;25419;-60
2023/02/27 02:58:01;;;;;;;;;;;;;;;-0.16;82.77;101069.13;106527;1265;25372;-60
2023/02/27 03:00:32;;;;;;;;;;;;;;;-0.16;82.80;101074.55;106672;1271;26810;-57
2023/02/27 03:03:05;;;;;;;;;;;;;;;-0.16;82.76;101076.11;106681;1278;26516;-58
2023/02/27 03:05:36;;;;;;;;;;;;;;;-0.16;82.72;101076.43;106663;1278;26587;-59
2023/02/27 03:08:08;;;;;;;;;;;;;;;-0.17;82.74;101083.17;106625;1274;25433;-58
2023/02/27 03:10:41;;;;;;;;;;;;;;;-0.16;82.79;101083.40;106645;1271;22508;-58
2023/02/27 03:13:13;;;;;;;;;;;;;;;-0.15;82.88;101090.24;106628;1270;22619;-58
2023/02/27 03:15:45;;;;;;;;;;;;;;;-0.15;82.90;101096.90;106640;1278;24861;-58
2023/02/27 03:18:19;;;;;;;;;;;;;;;-0.16;82.75;101096.89;106632;1278;22620;-58
2023/02/27 03:20:52;;;;;;;;;;;;;;;-0.17;82.81;101099.64;106702;1278;23900;-57
2023/02/27 03:23:23;;;;;;;;;;;;;;;-0.17;82.38;101102.30;106719;1271;25415;-58
2023/02/27 03:25:53;;;;;;;;;;;;;;;-0.21;81.99;101102.44;106594;1278;25430;-58
2023/02/27 03:28:25;;;;;;;;;;;;;;;-0.21;82.55;101104.55;106639;1268;22511;-58
2023/02/27 03:30:59;;;;;;;;;;;;;;;-0.20;82.77;101103.85;106577;1271;22517;-57
2023/02/27 03:33:31;;;;;;;;;;;;;;;-0.20;82.75;101106.44;106687;1264;22527;-56
2023/02/27 03:36:05;;;;;;;;;;;;;;;-0.20;82.75;101105.81;106626;1278;22773;-58
2023/02/27 03:38:38;;;;;;;;;;;;;;;-0.21;82.49;101110.98;106599;1277;22521;-58
2023/02/27 03:41:10;;;;;;;;;;;;;;;-0.23;82.69;101107.83;106841;1274;25546;-58
2023/02/27 03:43:43;;;;;;;;;;;;;;;-0.23;82.67;101105.25;107007;1267;25295;-56
2023/02/27 03:46:14;;;;;;;;;;;;;;;-0.24;82.77;101104.70;106612;1272;25438;-58
2023/02/27 03:48:44;;;;;;;;;;;;;;;-0.24;82.85;101113.39;106562;1272;25395;-58
2023/02/27 03:51:15;;;;;;;;;;;;;;;-0.24;82.87;101114.41;106584;1272;25282;-58
2023/02/27 03:53:48;;;;;;;;;;;;;;;-0.23;82.96;101121.63;106636;1278;25411;-57
2023/02/27 03:56:20;;;;;;;;;;;;;;;-0.19;83.06;101129.02;106596;1278;22710;-58
2023/02/27 03:58:50;;;;;;;;;;;;;;;-0.17;82.84;101126.84;106745;1272;22639;-59
2023/02/27 04:01:20;;;;;;;;;;;;;;;-0.16;82.92;101126.53;106615;1271;25493;-58
2023/02/27 04:03:53;;;;;;;;;;;;;;;-0.16;82.71;101131.23;106701;1278;23701;-57
2023/02/27 04:09:15;;;;;;;;;;;;;;;-0.15;82.96;101131.79;106580;1278;24325;-59
2023/02/27 04:11:55;;;;;;;;;;;;;;;-0.14;82.86;101133.98;106614;1278;22640;-60
2023/02/27 04:14:28;;;;;;;;;;;;;;;-0.13;82.82;101137.52;106663;1265;22515;-60
2023/02/27 04:17:10;;;;;;;;;;;;;;;-0.14;82.74;101138.08;106730;1274;22523;-57
2023/02/27 04:19:49;;;;;;;;;;;;;;;-0.14;82.67;101137.19;106594;1268;22622;-58
2023/02/27 04:22:28;;;;;;;;;;;;;;;-0.15;82.60;101134.77;106557;1278;24258;-60
2023/02/27 04:25:04;;;;;;;;;;;;;;;-0.17;82.65;101138.20;106593;1279;22514;-58
2023/02/27 04:27:37;;;;;;;;;;;;;;;-0.17;82.79;101134.28;106640;1265;25226;-60
2023/02/27 04:30:13;;;;;;;;;;;;;;;-0.16;82.98;101138.84;106722;1272;25316;-59
2023/02/27 04:32:44;;;;;;;;;;;;;;;-0.15;83.06;101137.05;106608;1278;25256;-58
2023/02/27 04:35:16;;;;;;;;;;;;;;;-0.14;82.85;101138.92;106618;1268;24153;-57
2023/02/27 04:37:48;;;;;;;;;;;;;;;-0.14;82.80;101141.60;106546;1278;22567;-60
2023/02/27 04:40:17;;;;;;;;;;;;;;;-0.15;82.85;101141.75;106608;1275;22508;-57
2023/02/27 04:42:48;;;;;;;;;;;;;;;-0.16;82.76;101139.06;106565;1278;22577;-60
2023/02/27 04:45:21;;;;;;;;;;;;;;;-0.16;82.85;101145.52;106656;1278;25289;-59
2023/02/27 04:47:52;;;;;;;;;;;;;;;-0.16;82.94;101148.02;106616;1268;22534;-61
2023/02/27 04:50:25;;;;;;;;;;;;;;;-0.17;82.60;101154.74;106564;1271;22525;-60
2023/02/27 04:52:56;;;;;;;;;;;;;;;-0.19;82.46;101154.34;106642;1278;22512;-60
2023/02/27 04:55:27;;;;;;;;;;;;;;;-0.20;82.80;101160.53;106579;1278;25292;-59
2023/02/27 04:57:59;;;;;;;;;;;;;;;-0.19;82.63;101159.21;106560;1271;23792;-59
2023/02/27 05:00:31;;;;;;;;;;;;;;;-0.21;82.41;101157.70;106547;1272;22882;-60
2023/02/27 05:03:02;;;;;;;;;;;;;;;-0.22;82.57;101161.69;106790;1272;22515;-59
2023/02/27 05:05:33;;;;;;;;;;;;;;;-0.22;82.64;101161.84;106552;1272;22910;-58
2023/02/27 05:08:04;;;;;;;;;;;;;;;-0.23;82.64;101164.75;106690;1268;24241;-59
2023/02/27 05:10:37;;;;;;;;;;;;;;;-0.25;82.42;101171.80;106371;1278;26456;-59
2023/02/27 05:13:09;;;;;;;;;;;;;;;-0.28;82.55;101169.50;106507;1268;22660;-61
2023/02/27 05:15:43;;;;;;;;;;;;;;;-0.28;82.70;101169.50;106387;1275;22523;-60
2023/02/27 05:18:14;;;;;;;;;;;;;;;-0.26;82.88;101169.36;106676;1272;24134;-60
2023/02/27 05:20:50;;;;;;;;;;;;;;;-0.25;82.81;101175.17;106515;1278;22520;-60
2023/02/27 05:23:22;;;;;;;;;;;;;;;-0.26;82.90;101173.83;106912;1265;25640;-58
2023/02/27 05:25:55;;;;;;;;;;;;;;;-0.24;83.07;101175.17;106543;1271;22559;-59
2023/02/27 05:28:30;;;;;;;;;;;;;;;-0.21;83.08;101174.63;106564;1278;24232;-58
2023/02/27 05:31:04;;;;;;;;;;;;;;;-0.22;82.91;101176.36;106701;1274;22740;-56
2023/02/27 05:33:36;;;;;;;;;;;;;;;-0.23;83.01;101174.79;106623;1263;22510;-57
2023/02/27 05:36:09;;;;;;;;;;;;;;;-0.23;83.15;101176.44;106771;1256;22724;-58
2023/02/27 05:38:40;;;;;;;;;;;;;;;-0.22;83.11;101177.45;106790;1278;24234;-57
2023/02/27 05:41:10;;;;;;;;;;;;;;;-0.22;83.02;101179.89;106573;1265;23664;-60
2023/02/27 05:43:42;;;;;;;;;;;;;;;-0.23;82.98;101177.99;106777;1260;22764;-59
2023/02/27 05:46:13;;;;;;;;;;;;;;;-0.23;83.04;101179.73;106814;1274;26515;-59
2023/02/27 05:48:44;;;;;;;;;;;;;;;-0.23;82.99;101183.48;106550;1274;25518;-59
2023/02/27 05:51:17;;;;;;;;;;;;;;;-0.24;83.03;101187.24;106592;1272;22512;-60
2023/02/27 05:53:51;;;;;;;;;;;;;;;-0.24;82.94;101190.23;106566;1278;24213;-58
2023/02/27 05:56:21;;;;;;;;;;;;;;;-0.24;83.11;101188.17;108857;1267;22509;-58
2023/02/27 05:58:52;;;;;;;;;;;;;;;-0.23;83.06;101194.78;106334;1275;25330;-56
2023/02/27 06:01:22;;;;;;;;;;;;;;;-0.22;83.24;101196.04;106249;1278;25314;-56
2023/02/27 06:03:52;;;;;;;;;;;;;;;-0.21;83.23;101197.45;106184;1278;22576;-58
2023/02/27 06:06:22;;;;;;;;;;;;;;;-0.22;83.31;101196.89;106126;1272;24311;-58
2023/02/27 06:08:52;;;;;;;;;;;;;;;-0.22;83.37;101200.27;106132;1278;24220;-58
2023/02/27 06:11:21;;;;;;;;;;;;;;;-0.23;83.31;101204.27;106294;1278;22528;-58
2023/02/27 06:13:50;;;;;;;;;;;;;;;-0.23;83.36;101202.77;106179;1275;25367;-58
2023/02/27 06:16:19;;;;;;;;;;;;;;;-0.22;83.43;101202.55;106171;1271;22507;-58
2023/02/27 06:18:48;;;;;;;;;;;;;;;-0.22;83.22;101204.34;106160;1277;22543;-59
2023/02/27 06:21:17;;;;;;;;;;;;;;;-0.22;83.31;101207.09;106152;1264;25353;-59
2023/02/27 06:23:47;;;;;;;;;;;;;;;-0.23;83.28;101207.55;106184;1278;24277;-55
2023/02/27 06:26:16;;;;;;;;;;;;;;;-0.22;83.19;101208.41;106101;1274;22754;-57
2023/02/27 06:28:46;;;;;;;;;;;;;;;-0.24;83.18;101212.48;106213;1278;22515;-58
2023/02/27 06:31:15;;;;;;;;;;;;;;;-0.24;83.27;101213.27;106141;1278;25212;-58
2023/02/27 06:33:44;;;;;;;;;;;;;;;-0.28;83.28;101213.48;106260;1272;26674;-61
2023/02/27 06:36:14;;;;;;;;;;;;;;;-0.28;83.35;101216.30;106312;1264;22620;-59
2023/02/27 06:38:43;;;;;;;;;;;;;;;-0.29;83.31;101219.51;106232;1271;22510;-58
2023/02/27 06:41:12;;;;;;;;;;;;;;;-0.32;83.45;101223.02;106180;1278;25364;-59
2023/02/27 06:43:41;;;;;;;;;;;;;;;-0.33;83.56;101222.55;106396;1275;24277;-58
2023/02/27 06:46:10;;;;;;;;;;;;;;;-0.35;83.60;101229.66;106204;1278;25642;-58
2023/02/27 06:48:39;;;;;;;;;;;;;;;-0.37;83.60;101227.60;106192;1275;22500;-59
2023/02/27 06:51:09;;;;;;;;;;;;;;;-0.37;83.68;101232.39;106248;1264;24248;-59
2023/02/27 06:53:38;;;;;;;;;;;;;;;-0.36;83.80;101237.64;106215;1278;24216;-56
2023/02/27 06:56:08;;;;;;;;;;;;;;;-0.37;83.72;101237.71;106226;1278;25397;-58
2023/02/27 06:58:37;;;;;;;;;;;;;;;-0.38;83.61;101242.97;106288;1278;22527;-59
2023/02/27 07:01:06;;;;;;;;;;;;;;;-0.38;83.79;101240.84;106154;1275;22515;-56
2023/02/27 07:03:36;;;;;;;;;;;;;;;-0.38;83.63;101243.28;106272;1271;24404;-58
2023/02/27 07:06:05;;;;;;;;;;;;;;;-0.36;83.87;101244.92;106321;1278;22528;-58
2023/02/27 07:08:35;;;;;;;;;;;;;;;-0.34;83.86;101243.16;106251;1274;22515;-58
2023/02/27 07:11:05;;;;;;;;;;;;;;;-0.34;83.86;101247.70;106265;1273;22516;-59
2023/02/27 07:13:34;;;;;;;;;;;;;;;-0.36;83.75;101254.34;106274;1276;24396;-56
2023/02/27 07:16:04;;;;;;;;;;;;;;;-0.36;83.98;101254.12;106244;1278;23461;-59
2023/02/27 07:18:33;;;;;;;;;;;;;;;-0.35;83.99;101255.94;106284;1278;26597;-57
2023/02/27 07:21:02;;;;;;;;;;;;;;;-0.36;83.95;101256.86;106212;1277;25493;-58
2023/02/27 07:23:32;;;;;;;;;;;;;;;-0.34;84.21;101257.27;106261;1278;22518;-57
2023/02/27 07:26:01;;;;;;;;;;;;;;;-0.32;84.39;101258.22;106338;1263;22521;-56
2023/02/27 07:28:30;;;;;;;;;;;;;;;-0.29;84.45;101262.64;106246;1274;22550;-58
2023/02/27 07:31:00;;;;;;;;;;;;;;;-0.28;84.32;101263.03;106212;1264;22510;-57
2023/02/27 07:33:31;;;;;;;;;;;;;;;-0.25;84.44;101266.03;106278;1272;22575;-58
2023/02/27 07:36:00;;;;;;;;;;;;;;;-0.23;84.41;101271.77;106234;1278;22510;-58
2023/02/27 07:38:31;;;;;;;;;;;;;;;-0.21;84.18;101270.61;106225;1278;22549;-59
2023/02/27 07:41:00;;;;;;;;;;;;;;;-0.21;84.06;101265.19;106289;1278;22550;-59
2023/02/27 07:43:29;;;;;;;;;;;;;;;-0.20;84.10;101271.15;106272;1273;22514;-58
2023/02/27 07:46:00;;;;;;;;;;;;;;;-0.18;84.08;101271.48;106428;1260;22512;-59
2023/02/27 07:48:33;;;;;;;;;;;;;;;-0.16;84.03;101271.98;106381;1272;22536;-59
2023/02/27 07:51:02;;;;;;;;;;;;;;;-0.15;84.00;101272.45;106427;1278;22510;-58
2023/02/27 07:53:31;;;;;;;;;;;;;;;-0.12;84.09;101271.00;106242;1268;22518;-57
2023/02/27 07:56:00;;;;;;;;;;;;;;;-0.11;84.22;101275.46;106209;1275;25339;-59
2023/02/27 07:58:29;;;;;;;;;;;;;;;-0.10;84.28;101283.30;106187;1263;25311;-59
2023/02/27 08:00:59;;;;;;;;;;;;;;;-0.05;84.24;101283.34;106181;1263;22507;-57
2023/02/27 08:03:28;;;;;;;;;;;;;;;-0.06;83.77;101279.35;106238;1272;22523;-59
2023/02/27 08:05:57;;;;;;;;;;;;;;;-0.06;84.11;101277.54;106225;1278;22508;-59
2023/02/27 08:08:27;;;;;;;;;;;;;;;-0.02;84.30;101284.70;106229;1278;26513;-58
2023/02/27 08:10:57;;;;;;;;;;;;;;;0.03;84.31;101283.56;106214;1275;23939;-59
2023/02/27 08:13:26;;;;;;;;;;;;;;;0.09;84.41;101286.65;106349;1268;22445;-59
2023/02/27 08:15:55;;;;;;;;;;;;;;;0.14;84.23;101288.95;106342;1274;22540;-59
2023/02/27 08:18:25;;;;;;;;;;;;;;;0.18;84.27;101291.88;106369;1278;22513;-58
2023/02/27 08:20:56;;;;;;;;;;;;;;;0.22;83.98;101292.23;106221;1278;25550;-58
2023/02/27 08:23:26;;;;;;;;;;;;;;;0.24;83.82;101294.91;106480;1273;25368;-57
2023/02/27 08:25:56;;;;;;;;;;;;;;;0.29;84.09;101291.48;106316;1265;24366;-59
2023/02/27 08:28:26;;;;;;;;;;;;;;;0.33;83.83;101294.72;106207;1278;25317;-59
2023/02/27 08:30:55;;;;;;;;;;;;;;;0.34;83.52;101295.42;106299;1272;22515;-60
2023/02/27 08:33:25;;;;;;;;;;;;;;;0.34;83.73;101299.42;106367;1272;22538;-59
2023/02/27 08:35:55;;;;;;;;;;;;;;;0.38;83.88;101302.60;106363;1278;22531;-59
2023/02/27 08:38:25;;;;;;;;;;;;;;;0.42;84.07;101304.90;106352;1274;24265;-59
2023/02/27 08:40:54;;;;;;;;;;;;;;;0.49;84.22;101302.34;106330;1267;25543;-56
2023/02/27 08:43:23;;;;;;;;;;;;;;;0.55;84.00;101303.71;106251;1278;25956;-59
2023/02/27 08:45:53;;;;;;;;;;;;;;;0.61;83.57;101304.59;106299;1278;22993;-59
2023/02/27 08:48:23;;;;;;;;;;;;;;;0.64;83.59;101306.49;106264;1278;25278;-60
2023/02/27 08:50:53;;;;;;;;;;;;;;;0.68;83.45;101302.65;106318;1276;24246;-59
2023/02/27 08:53:27;;;;;;;;;;;;;;;0.72;83.58;101305.80;106378;1264;25525;-57
2023/02/27 08:55:56;;;;;;;;;;;;;;;0.71;83.02;101314.45;106287;1268;302677;-58
2023/02/27 08:58:27;;;;;;;;;;;;;;;0.71;82.85;101317.90;106496;1275;22651;-59
2023/02/27 09:00:56;;;;;;;;;;;;;;;0.70;82.98;101311.70;106405;1278;23773;-59
2023/02/27 09:03:27;;;;;;;;;;;;;;;0.71;83.07;101315.00;106369;1258;24275;-57
2023/02/27 09:05:57;;;;;;;;;;;;;;;0.74;83.01;101312.20;106271;1278;22524;-59
2023/02/27 09:08:26;;;;;;;;;;;;;;;0.75;82.71;101312.42;106303;1278;22515;-57
2023/02/27 09:10:57;;;;;;;;;;;;;;;0.72;82.35;101305.27;106315;1278;24378;-58
2023/02/27 09:13:27;;;;;;;;;;;;;;;0.72;82.36;101305.49;106410;1278;22509;-58
2023/02/27 09:15:56;;;;;;;;;;;;;;;0.73;82.48;101307.08;106277;1278;25549;-59
2023/02/27 09:18:26;;;;;;;;;;;;;;;0.76;82.40;101304.36;106307;1272;24217;-60
2023/02/27 09:20:56;;;;;;;;;;;;;;;0.79;82.25;101308.61;106402;1278;22516;-58
2023/02/27 09:23:25;;;;;;;;;;;;;;;0.82;82.36;101312.61;106614;1273;23222;-59
2023/02/27 09:25:55;;;;;;;;;;;;;;;0.88;82.22;101316.56;106432;1274;22518;-59
2023/02/27 09:28:24;;;;;;;;;;;;;;;0.94;82.42;101321.85;106237;1278;24347;-59
2023/02/27 09:30:53;;;;;;;;;;;;;;;1.02;82.27;101322.81;106200;1278;24300;-56
2023/02/27 09:33:23;;;;;;;;;;;;;;;1.09;82.14;101322.91;106265;1278;22572;-58
2023/02/27 09:35:53;;;;;;;;;;;;;;;1.17;82.40;101324.60;106287;1278;24249;-58
2023/02/27 09:38:22;;;;;;;;;;;;;;;1.27;82.27;101330.35;106261;1276;22514;-59
2023/02/27 09:40:53;;;;;;;;;;;;;;;1.36;82.40;101329.34;106256;1274;25598;-59
2023/02/27 09:43:26;;;;;;;;;;;;;;;1.47;82.32;101335.27;106328;1275;22515;-59
2023/02/27 09:45:56;;;;;;;;;;;;;;;1.56;82.47;101333.31;106257;1274;22572;-61
2023/02/27 09:48:30;;;;;;;;;;;;;;;1.67;82.32;101334.66;106423;1274;22776;-58
2023/02/27 09:50:59;;;;;;;;;;;;;;;1.76;81.59;101340.08;106467;1275;22635;-58
2023/02/27 09:53:31;;;;;;;;;;;;;;;1.83;81.61;101345.20;106380;1276;24199;-58
2023/02/27 09:56:05;;;;;;;;;;;;;;;1.86;80.73;101350.33;106330;1278;22515;-58
2023/02/27 09:58:46;;;;;;;;;;;;;;;1.87;80.49;101349.93;106235;1278;24272;-58
2023/02/27 10:01:19;;;;;;;;;;;;;;;1.87;80.13;101356.45;106290;1278;22782;-56
2023/02/27 10:03:56;;;;;;;;;;;;;;;1.88;80.62;101355.35;106420;1277;22522;-58
2023/02/27 10:06:28;;;;;;;;;;;;;;;1.91;80.90;101356.45;106264;1266;22512;-55
2023/02/27 10:09:09;;;;;;;;;;;;;;;1.96;81.27;101358.89;106252;1278;24385;-61
2023/02/27 10:11:44;;;;;;;;;;;;;;;2.01;81.25;101363.14;106378;1278;22554;-58
2023/02/27 10:14:23;;;;;;;;;;;;;;;2.04;80.67;101360.08;106301;1278;25233;-61
2023/02/27 10:16:53;;;;;;;;;;;;;;;2.06;81.19;101363.61;106295;1278;22563;-58
2023/02/27 10:19:26;;;;;;;;;;;;;;;2.10;80.64;101364.40;106236;1268;23824;-57
2023/02/27 10:21:58;;;;;;;;;;;;;;;2.13;80.42;101364.71;106281;1264;22515;-58
2023/02/27 10:24:30;;;;;;;;;;;;;;;2.17;80.96;101364.88;106194;1278;22514;-58
2023/02/27 10:27:01;;;;;;;;;;;;;;;2.23;80.94;101364.63;106271;1278;24285;-60
2023/02/27 10:29:32;;;;;;;;;;;;;;;2.28;80.69;101360.61;106402;1273;22530;-59
2023/02/27 10:32:04;;;;;;;;;;;;;;;2.34;80.66;101360.98;106315;1278;23112;-58
2023/02/27 10:34:34;;;;;;;;;;;;;;;2.37;80.56;101359.16;106284;1269;24206;-58
2023/02/27 10:37:05;;;;;;;;;;;;;;;2.41;80.20;101360.52;106190;1277;23025;-58
2023/02/27 10:39:42;;;;;;;;;;;;;;;2.41;79.58;101356.81;106300;1278;22518;-58
2023/02/27 10:42:12;;;;;;;;;;;;;;;2.43;79.63;101356.80;106238;1265;22528;-54
2023/02/27 10:44:42;;;;;;;;;;;;;;;2.44;79.76;101355.61;106256;1278;22648;-57
2023/02/27 10:47:15;;;;;;;;;;;;;;;2.48;80.06;101357.97;106244;1278;22525;-58
2023/02/27 10:49:44;;;;;;;;;;;;;;;2.50;79.48;101351.04;106291;1271;22516;-58
2023/02/27 10:52:15;;;;;;;;;;;;;;;2.50;79.52;101353.64;106385;1278;22507;-55
2023/02/27 10:54:45;;;;;;;;;;;;;;;2.54;79.33;101354.73;106287;1272;22511;-59
2023/02/27 10:57:25;;;;;;;;;;;;;;;2.57;79.38;101352.52;106249;1275;22511;-56
2023/02/27 10:59:56;;;;;;;;;;;;;;;2.64;79.80;101349.04;106398;1278;25526;-57
2023/02/27 11:02:28;;;;;;;;;;;;;;;2.70;78.94;101346.27;106681;1272;22497;-58
2023/02/27 11:04:59;;;;;;;;;;;;;;;2.76;78.92;101342.77;106342;1273;22512;-57
2023/02/27 11:07:34;;;;;;;;;;;;;;;2.81;78.59;101338.34;106348;1275;24238;-60
2023/02/27 11:10:15;;;;;;;;;;;;;;;2.85;78.44;101338.33;106360;1269;22571;-59
2023/02/27 11:12:57;;;;;;;;;;;;;;;2.90;77.85;101339.02;106437;1278;25284;-55
2023/02/27 11:15:27;;;;;;;;;;;;;;;2.97;77.29;101337.25;106339;1277;24275;-55
2023/02/27 11:18:16;;;;;;;;;;;;;;;3.02;77.29;101334.95;106502;1278;22552;-56
2023/02/27 11:20:49;;;;;;;;;;;;;;;3.05;77.09;101334.45;106221;1278;22530;-59
2023/02/27 11:23:19;;;;;;;;;;;;;;;3.08;76.40;101335.54;106390;1278;25075;-58
2023/02/27 11:25:48;;;;;;;;;;;;;;;3.12;76.24;101334.65;106205;1275;25402;-59
2023/02/27 11:28:25;;;;;;;;;;;;;;;3.16;76.33;101327.77;106230;1278;23266;-59
2023/02/27 11:31:02;;;;;;;;;;;;;;;3.22;76.13;101329.16;106215;1275;26535;-58
2023/02/27 11:33:33;;;;;;;;;;;;;;;3.25;75.86;101331.27;106599;1278;22666;-55
2023/02/27 11:36:03;;;;;;;;;;;;;;;3.28;75.45;101329.92;106355;1276;24240;-59
2023/02/27 11:38:33;;;;;;;;;;;;;;;3.28;74.21;101332.52;106324;1269;22528;-56
2023/02/27 11:41:04;;;;;;;;;;;;;;;3.23;74.09;101333.58;106368;1275;22674;-57
2023/02/27 11:43:35;;;;;;;;;;;;;;;3.24;74.53;101332.86;106344;1278;24637;-58
2023/02/27 11:46:05;;;;;;;;;;;;;;;3.24;74.71;101333.95;106679;1276;22642;-59
2023/02/27 11:48:37;;;;;;;;;;;;;;;3.26;74.08;101330.95;106623;1268;22582;-61
2023/02/27 11:51:22;;;;;;;;;;;;;;;3.24;74.20;101325.13;106699;1274;25287;-60
2023/02/27 11:54:05;;;;;;;;;;;;;;;3.28;74.38;101328.02;107100;1278;25403;-59
2023/02/27 11:56:36;;;;;;;;;;;;;;;3.27;74.20;101324.95;106417;1278;22527;-58
2023/02/27 11:59:13;;;;;;;;;;;;;;;3.26;74.08;101320.46;106375;1278;22654;-56
2023/02/27 12:01:46;;;;;;;;;;;;;;;3.24;74.23;101321.80;106313;1272;24318;-59
2023/02/27 12:04:18;;;;;;;;;;;;;;;3.18;74.01;101321.45;106319;1278;22512;-60
2023/02/27 12:06:50;;;;;;;;;;;;;;;3.14;74.65;101324.80;106210;1278;23989;-60
2023/02/27 12:09:30;;;;;;;;;;;;;;;3.12;74.62;101327.24;106422;1272;25447;-58
2023/02/27 12:12:00;;;;;;;;;;;;;;;3.12;74.62;101322.67;106283;1278;22515;-58
2023/02/27 12:14:33;;;;;;;;;;;;;;;3.12;74.87;101324.80;106197;1278;25515;-56
2023/02/27 12:17:07;;;;;;;;;;;;;;;3.10;74.49;101322.91;106285;1265;22514;-57
2023/02/27 12:19:41;;;;;;;;;;;;;;;3.08;74.75;101328.67;106283;1278;25332;-58
2023/02/27 12:22:17;;;;;;;;;;;;;;;3.09;74.40;101327.65;106288;1276;22514;-58
2023/02/27 12:24:50;;;;;;;;;;;;;;;3.10;74.93;101328.12;106319;1275;24290;-57
2023/02/27 12:27:22;;;;;;;;;;;;;;;3.11;73.67;101327.64;106226;1276;22555;-59
2023/02/27 12:29:54;;;;;;;;;;;;;;;3.12;73.84;101334.58;106240;1278;22563;-58
2023/02/27 12:32:26;;;;;;;;;;;;;;;3.11;72.94;101330.25;106586;1263;22760;-59
2023/02/27 12:34:59;;;;;;;;;;;;;;;3.10;73.89;101333.26;106360;1276;22511;-59
2023/02/27 12:37:32;;;;;;;;;;;;;;;3.09;73.71;101335.38;106259;1273;22663;-58
2023/02/27 12:40:04;;;;;;;;;;;;;;;3.08;73.50;101334.12;106361;1278;22565;-58
2023/02/27 12:42:42;;;;;;;;;;;;;;;3.11;73.86;101337.02;106447;1278;22514;-59
2023/02/27 12:45:29;;;;;;;;;;;;;;;3.08;73.54;101341.05;106437;1278;24273;-58
2023/02/27 12:48:03;;;;;;;;;;;;;;;3.07;74.17;101336.49;106284;1278;22505;-58
2023/02/27 12:50:44;;;;;;;;;;;;;;;3.04;74.01;101344.23;106411;1278;22514;-57
2023/02/27 12:53:25;;;;;;;;;;;;;;;2.98;73.40;101340.08;106288;1278;22623;-59
2023/02/27 12:55:58;;;;;;;;;;;;;;;2.95;73.94;101341.13;106343;1273;22515;-60
2023/02/27 12:58:36;;;;;;;;;;;;;;;2.95;74.11;101341.91;106298;1278;24193;-58